sensor_id;sensor_type;location;lat;lon;timestamp;P1;durP1;ratioP1;P2;durP2;ratioP2
67828;SDS011;54626;45.436;10.942;2023-10-08T00:00:08;8.57;;;5.25;;
67828;SDS011;54626;45.436;10.942;2023-10-08T00:03:21;10.90;;;5.25;;
67828;SDS011;54626;45.436;10.942;2023-10-08T00:05:50;13.98;;;4.53;;
67828;SDS011;54626;45.436;10.942;2023-10-08T00:08:16;10.05;;;2.72;;
67828;SDS011;54626;45.436;10.942;2023-10-08T00:10:48;13.05;;;4.85;;
67828;SDS011;54626;45.436;10.942;2023-10-08T00:13:15;27.88;;;7.05;;
67828;SDS011;54626;45.436;10.942;2023-10-08T00:15:42;12.55;;;6.05;;
67828;SDS011;54626;45.436;10.942;2023-10-08T00:18:26;6.72;;;3.88;;
67828;SDS011;54626;45.436;10.942;2023-10-08T00:20:55;7.47;;;3.08;;
67828;SDS011;54626;45.436;10.942;2023-10-08T00:26:29;6.07;;;3.63;;
67828;SDS011;54626;45.436;10.942;2023-10-08T00:28:58;13.55;;;5.45;;
67828;SDS011;54626;45.436;10.942;2023-10-08T00:32:00;15.32;;;5.00;;
67828;SDS011;54626;45.436;10.942;2023-10-08T00:34:39;7.80;;;4.78;;
67828;SDS011;54626;45.436;10.942;2023-10-08T00:37:11;6.18;;;2.60;;
67828;SDS011;54626;45.436;10.942;2023-10-08T00:42:22;9.50;;;4.78;;
67828;SDS011;54626;45.436;10.942;2023-10-08T00:44:51;13.95;;;6.97;;
67828;SDS011;54626;45.436;10.942;2023-10-08T00:47:34;3.78;;;3.20;;
67828;SDS011;54626;45.436;10.942;2023-10-08T00:50:08;12.00;;;5.30;;
67828;SDS011;54626;45.436;10.942;2023-10-08T00:52:51;9.73;;;4.72;;
67828;SDS011;54626;45.436;10.942;2023-10-08T00:55:29;10.40;;;4.95;;
67828;SDS011;54626;45.436;10.942;2023-10-08T00:57:59;8.88;;;5.97;;
67828;SDS011;54626;45.436;10.942;2023-10-08T01:00:37;14.27;;;4.72;;
67828;SDS011;54626;45.436;10.942;2023-10-08T01:03:08;8.63;;;5.57;;
67828;SDS011;54626;45.436;10.942;2023-10-08T01:05:49;9.73;;;4.25;;
67828;SDS011;54626;45.436;10.942;2023-10-08T01:08:16;6.13;;;4.60;;
67828;SDS011;54626;45.436;10.942;2023-10-08T01:11:23;6.65;;;3.25;;
67828;SDS011;54626;45.436;10.942;2023-10-08T01:14:26;9.55;;;3.92;;
67828;SDS011;54626;45.436;10.942;2023-10-08T01:16:59;9.07;;;3.92;;
67828;SDS011;54626;45.436;10.942;2023-10-08T01:19:27;9.15;;;4.30;;
67828;SDS011;54626;45.436;10.942;2023-10-08T01:21:54;16.98;;;7.00;;
67828;SDS011;54626;45.436;10.942;2023-10-08T01:24:25;12.02;;;3.83;;
67828;SDS011;54626;45.436;10.942;2023-10-08T01:26:53;7.95;;;4.38;;
67828;SDS011;54626;45.436;10.942;2023-10-08T01:29:20;11.50;;;3.67;;
67828;SDS011;54626;45.436;10.942;2023-10-08T01:31:47;7.85;;;4.47;;
67828;SDS011;54626;45.436;10.942;2023-10-08T01:34:22;6.65;;;4.22;;
67828;SDS011;54626;45.436;10.942;2023-10-08T01:37:08;11.65;;;3.83;;
67828;SDS011;54626;45.436;10.942;2023-10-08T01:39:38;9.10;;;3.80;;
67828;SDS011;54626;45.436;10.942;2023-10-08T01:42:11;9.60;;;4.15;;
67828;SDS011;54626;45.436;10.942;2023-10-08T01:44:49;7.78;;;4.07;;
67828;SDS011;54626;45.436;10.942;2023-10-08T01:47:22;5.18;;;4.38;;
67828;SDS011;54626;45.436;10.942;2023-10-08T01:49:51;4.38;;;3.70;;
67828;SDS011;54626;45.436;10.942;2023-10-08T01:52:40;5.13;;;3.22;;
67828;SDS011;54626;45.436;10.942;2023-10-08T01:55:07;10.90;;;4.35;;
67828;SDS011;54626;45.436;10.942;2023-10-08T01:57:37;7.22;;;3.70;;
67828;SDS011;54626;45.436;10.942;2023-10-08T02:00:05;8.25;;;3.90;;
67828;SDS011;54626;45.436;10.942;2023-10-08T02:02:34;5.50;;;2.58;;
67828;SDS011;54626;45.436;10.942;2023-10-08T02:05:00;12.13;;;3.20;;
67828;SDS011;54626;45.436;10.942;2023-10-08T02:07:27;4.95;;;2.13;;
67828;SDS011;54626;45.436;10.942;2023-10-08T02:10:09;8.35;;;4.45;;
67828;SDS011;54626;45.436;10.942;2023-10-08T02:12:39;3.97;;;2.55;;
67828;SDS011;54626;45.436;10.942;2023-10-08T02:15:07;8.27;;;2.75;;
67828;SDS011;54626;45.436;10.942;2023-10-08T02:17:34;9.05;;;5.25;;
67828;SDS011;54626;45.436;10.942;2023-10-08T02:20:14;8.73;;;4.78;;
67828;SDS011;54626;45.436;10.942;2023-10-08T02:22:42;6.28;;;3.65;;
67828;SDS011;54626;45.436;10.942;2023-10-08T02:25:15;5.10;;;2.08;;
67828;SDS011;54626;45.436;10.942;2023-10-08T02:28:10;4.72;;;3.15;;
67828;SDS011;54626;45.436;10.942;2023-10-08T02:30:38;9.32;;;3.55;;
67828;SDS011;54626;45.436;10.942;2023-10-08T02:33:05;7.18;;;2.67;;
67828;SDS011;54626;45.436;10.942;2023-10-08T02:35:43;5.70;;;2.05;;
67828;SDS011;54626;45.436;10.942;2023-10-08T02:38:17;3.65;;;2.50;;
67828;SDS011;54626;45.436;10.942;2023-10-08T02:40:48;5.30;;;4.25;;
67828;SDS011;54626;45.436;10.942;2023-10-08T02:43:15;8.65;;;4.43;;
67828;SDS011;54626;45.436;10.942;2023-10-08T02:45:43;9.82;;;3.80;;
67828;SDS011;54626;45.436;10.942;2023-10-08T02:48:17;8.55;;;4.28;;
67828;SDS011;54626;45.436;10.942;2023-10-08T02:50:45;7.10;;;3.45;;
67828;SDS011;54626;45.436;10.942;2023-10-08T02:53:12;6.28;;;3.88;;
67828;SDS011;54626;45.436;10.942;2023-10-08T02:58:43;9.35;;;3.72;;
67828;SDS011;54626;45.436;10.942;2023-10-08T03:01:10;2.10;;;1.23;;
67828;SDS011;54626;45.436;10.942;2023-10-08T03:03:49;4.57;;;2.30;;
67828;SDS011;54626;45.436;10.942;2023-10-08T03:06:19;5.07;;;1.90;;
67828;SDS011;54626;45.436;10.942;2023-10-08T03:08:46;4.93;;;2.60;;
67828;SDS011;54626;45.436;10.942;2023-10-08T03:11:14;6.68;;;3.22;;
67828;SDS011;54626;45.436;10.942;2023-10-08T03:13:44;7.60;;;3.67;;
67828;SDS011;54626;45.436;10.942;2023-10-08T03:16:13;6.35;;;3.95;;
67828;SDS011;54626;45.436;10.942;2023-10-08T03:18:41;1.58;;;1.42;;
67828;SDS011;54626;45.436;10.942;2023-10-08T03:21:11;10.95;;;3.30;;
67828;SDS011;54626;45.436;10.942;2023-10-08T03:26:19;5.18;;;2.15;;
67828;SDS011;54626;45.436;10.942;2023-10-08T03:29:10;4.30;;;2.10;;
67828;SDS011;54626;45.436;10.942;2023-10-08T03:31:52;5.18;;;3.05;;
67828;SDS011;54626;45.436;10.942;2023-10-08T03:34:21;4.35;;;2.83;;
67828;SDS011;54626;45.436;10.942;2023-10-08T03:36:56;6.43;;;1.40;;
67828;SDS011;54626;45.436;10.942;2023-10-08T03:39:40;12.70;;;1.77;;
67828;SDS011;54626;45.436;10.942;2023-10-08T03:45:13;11.02;;;2.67;;
67828;SDS011;54626;45.436;10.942;2023-10-08T03:47:42;3.65;;;2.50;;
67828;SDS011;54626;45.436;10.942;2023-10-08T03:50:13;2.15;;;2.05;;
67828;SDS011;54626;45.436;10.942;2023-10-08T03:52:44;3.13;;;2.38;;
67828;SDS011;54626;45.436;10.942;2023-10-08T03:58:03;5.20;;;2.95;;
67828;SDS011;54626;45.436;10.942;2023-10-08T04:00:33;5.85;;;3.97;;
67828;SDS011;54626;45.436;10.942;2023-10-08T04:03:07;7.35;;;3.08;;
67828;SDS011;54626;45.436;10.942;2023-10-08T04:05:42;4.47;;;3.20;;
67828;SDS011;54626;45.436;10.942;2023-10-08T04:08:41;5.63;;;2.38;;
67828;SDS011;54626;45.436;10.942;2023-10-08T04:11:15;3.75;;;3.03;;
67828;SDS011;54626;45.436;10.942;2023-10-08T04:14:01;3.70;;;2.80;;
67828;SDS011;54626;45.436;10.942;2023-10-08T04:16:32;8.23;;;4.97;;
67828;SDS011;54626;45.436;10.942;2023-10-08T04:19:03;4.60;;;2.15;;
67828;SDS011;54626;45.436;10.942;2023-10-08T04:21:33;3.83;;;2.45;;
67828;SDS011;54626;45.436;10.942;2023-10-08T04:24:23;5.88;;;2.72;;
67828;SDS011;54626;45.436;10.942;2023-10-08T04:27:02;5.75;;;3.42;;
67828;SDS011;54626;45.436;10.942;2023-10-08T04:29:29;5.70;;;4.35;;
67828;SDS011;54626;45.436;10.942;2023-10-08T04:32:02;10.18;;;2.38;;
67828;SDS011;54626;45.436;10.942;2023-10-08T04:34:58;5.93;;;2.45;;
67828;SDS011;54626;45.436;10.942;2023-10-08T04:37:36;3.65;;;1.40;;
67828;SDS011;54626;45.436;10.942;2023-10-08T04:40:18;3.95;;;3.00;;
67828;SDS011;54626;45.436;10.942;2023-10-08T04:42:52;2.08;;;1.42;;
67828;SDS011;54626;45.436;10.942;2023-10-08T04:45:20;6.38;;;3.38;;
67828;SDS011;54626;45.436;10.942;2023-10-08T04:47:52;7.88;;;4.45;;
67828;SDS011;54626;45.436;10.942;2023-10-08T04:50:23;5.55;;;2.00;;
67828;SDS011;54626;45.436;10.942;2023-10-08T04:53:22;10.10;;;4.05;;
67828;SDS011;54626;45.436;10.942;2023-10-08T04:55:58;17.67;;;5.15;;
67828;SDS011;54626;45.436;10.942;2023-10-08T04:58:32;1.77;;;1.38;;
67828;SDS011;54626;45.436;10.942;2023-10-08T05:01:14;8.82;;;3.80;;
67828;SDS011;54626;45.436;10.942;2023-10-08T05:03:57;9.65;;;4.47;;
67828;SDS011;54626;45.436;10.942;2023-10-08T05:06:27;2.13;;;1.95;;
67828;SDS011;54626;45.436;10.942;2023-10-08T05:12:52;5.97;;;2.60;;
67828;SDS011;54626;45.436;10.942;2023-10-08T05:15:32;6.88;;;4.47;;
67828;SDS011;54626;45.436;10.942;2023-10-08T05:18:13;3.90;;;1.67;;
67828;SDS011;54626;45.436;10.942;2023-10-08T05:20:55;8.63;;;4.25;;
67828;SDS011;54626;45.436;10.942;2023-10-08T05:23:29;4.55;;;1.77;;
67828;SDS011;54626;45.436;10.942;2023-10-08T05:26:05;2.58;;;2.35;;
67828;SDS011;54626;45.436;10.942;2023-10-08T05:28:47;8.68;;;3.05;;
67828;SDS011;54626;45.436;10.942;2023-10-08T05:32:00;4.60;;;4.20;;
67828;SDS011;54626;45.436;10.942;2023-10-08T05:35:25;3.58;;;2.60;;
67828;SDS011;54626;45.436;10.942;2023-10-08T05:38:15;5.50;;;3.15;;
67828;SDS011;54626;45.436;10.942;2023-10-08T05:40:52;5.95;;;2.70;;
67828;SDS011;54626;45.436;10.942;2023-10-08T05:46:15;4.85;;;2.88;;
67828;SDS011;54626;45.436;10.942;2023-10-08T05:49:06;8.88;;;3.92;;
67828;SDS011;54626;45.436;10.942;2023-10-08T05:54:13;9.88;;;4.68;;
67828;SDS011;54626;45.436;10.942;2023-10-08T05:57:08;7.40;;;3.55;;
67828;SDS011;54626;45.436;10.942;2023-10-08T05:59:50;3.88;;;2.65;;
67828;SDS011;54626;45.436;10.942;2023-10-08T06:02:24;7.63;;;2.70;;
67828;SDS011;54626;45.436;10.942;2023-10-08T06:05:02;3.35;;;2.25;;
67828;SDS011;54626;45.436;10.942;2023-10-08T06:10:33;2.00;;;1.80;;
67828;SDS011;54626;45.436;10.942;2023-10-08T06:13:15;4.68;;;2.80;;
67828;SDS011;54626;45.436;10.942;2023-10-08T06:16:13;7.35;;;3.72;;
67828;SDS011;54626;45.436;10.942;2023-10-08T06:19:13;6.32;;;2.10;;
67828;SDS011;54626;45.436;10.942;2023-10-08T06:21:43;8.05;;;5.05;;
67828;SDS011;54626;45.436;10.942;2023-10-08T06:24:09;6.35;;;1.95;;
67828;SDS011;54626;45.436;10.942;2023-10-08T06:26:39;1.80;;;1.70;;
67828;SDS011;54626;45.436;10.942;2023-10-08T06:29:09;7.45;;;2.78;;
67828;SDS011;54626;45.436;10.942;2023-10-08T06:31:56;3.13;;;1.52;;
67828;SDS011;54626;45.436;10.942;2023-10-08T06:34:47;3.47;;;2.58;;
67828;SDS011;54626;45.436;10.942;2023-10-08T06:37:15;7.03;;;2.60;;
67828;SDS011;54626;45.436;10.942;2023-10-08T06:39:42;2.22;;;1.45;;
67828;SDS011;54626;45.436;10.942;2023-10-08T06:42:15;2.33;;;1.42;;
67828;SDS011;54626;45.436;10.942;2023-10-08T06:44:43;9.45;;;3.00;;
67828;SDS011;54626;45.436;10.942;2023-10-08T06:47:12;6.85;;;4.07;;
67828;SDS011;54626;45.436;10.942;2023-10-08T06:49:54;2.50;;;0.82;;
67828;SDS011;54626;45.436;10.942;2023-10-08T06:52:21;3.00;;;1.40;;
67828;SDS011;54626;45.436;10.942;2023-10-08T06:54:54;5.80;;;3.65;;
67828;SDS011;54626;45.436;10.942;2023-10-08T06:57:23;9.90;;;4.45;;
67828;SDS011;54626;45.436;10.942;2023-10-08T07:00:24;2.83;;;1.88;;
67828;SDS011;54626;45.436;10.942;2023-10-08T07:03:27;6.63;;;3.25;;
67828;SDS011;54626;45.436;10.942;2023-10-08T07:05:57;5.70;;;2.45;;
67828;SDS011;54626;45.436;10.942;2023-10-08T07:08:25;4.80;;;2.20;;
67828;SDS011;54626;45.436;10.942;2023-10-08T07:10:53;1.95;;;1.00;;
67828;SDS011;54626;45.436;10.942;2023-10-08T07:13:23;1.27;;;0.85;;
67828;SDS011;54626;45.436;10.942;2023-10-08T07:15:51;2.45;;;1.40;;
67828;SDS011;54626;45.436;10.942;2023-10-08T07:18:19;2.40;;;1.30;;
67828;SDS011;54626;45.436;10.942;2023-10-08T07:20:53;0.52;;;0.28;;
67828;SDS011;54626;45.436;10.942;2023-10-08T07:23:22;1.17;;;1.08;;
67828;SDS011;54626;45.436;10.942;2023-10-08T07:25:58;4.68;;;2.65;;
67828;SDS011;54626;45.436;10.942;2023-10-08T07:28:40;1.48;;;1.33;;
67828;SDS011;54626;45.436;10.942;2023-10-08T07:31:23;2.38;;;0.60;;
67828;SDS011;54626;45.436;10.942;2023-10-08T07:33:51;4.57;;;2.45;;
67828;SDS011;54626;45.436;10.942;2023-10-08T07:36:25;7.18;;;3.38;;
67828;SDS011;54626;45.436;10.942;2023-10-08T07:38:53;3.35;;;1.85;;
67828;SDS011;54626;45.436;10.942;2023-10-08T07:41:20;9.23;;;2.03;;
67828;SDS011;54626;45.436;10.942;2023-10-08T07:43:47;9.63;;;2.70;;
67828;SDS011;54626;45.436;10.942;2023-10-08T07:46:24;2.65;;;1.27;;
67828;SDS011;54626;45.436;10.942;2023-10-08T07:48:55;4.57;;;2.05;;
67828;SDS011;54626;45.436;10.942;2023-10-08T07:51:21;3.10;;;2.03;;
67828;SDS011;54626;45.436;10.942;2023-10-08T07:53:48;3.53;;;1.58;;
67828;SDS011;54626;45.436;10.942;2023-10-08T07:56:33;6.57;;;2.55;;
67828;SDS011;54626;45.436;10.942;2023-10-08T07:59:05;2.55;;;1.27;;
67828;SDS011;54626;45.436;10.942;2023-10-08T08:01:34;2.88;;;2.17;;
67828;SDS011;54626;45.436;10.942;2023-10-08T08:04:03;3.38;;;2.05;;
67828;SDS011;54626;45.436;10.942;2023-10-08T08:06:32;5.65;;;3.15;;
67828;SDS011;54626;45.436;10.942;2023-10-08T08:09:00;4.90;;;2.75;;
67828;SDS011;54626;45.436;10.942;2023-10-08T08:11:30;5.20;;;2.70;;
67828;SDS011;54626;45.436;10.942;2023-10-08T08:13:58;6.65;;;3.08;;
67828;SDS011;54626;45.436;10.942;2023-10-08T08:16:26;5.95;;;1.20;;
67828;SDS011;54626;45.436;10.942;2023-10-08T08:18:55;7.95;;;3.47;;
67828;SDS011;54626;45.436;10.942;2023-10-08T08:21:23;6.18;;;3.25;;
67828;SDS011;54626;45.436;10.942;2023-10-08T08:23:49;5.63;;;3.47;;
67828;SDS011;54626;45.436;10.942;2023-10-08T08:26:25;4.88;;;3.40;;
67828;SDS011;54626;45.436;10.942;2023-10-08T08:28:59;4.68;;;2.90;;
67828;SDS011;54626;45.436;10.942;2023-10-08T08:31:30;6.47;;;3.08;;
67828;SDS011;54626;45.436;10.942;2023-10-08T08:34:02;8.13;;;3.35;;
67828;SDS011;54626;45.436;10.942;2023-10-08T08:36:41;8.13;;;3.13;;
67828;SDS011;54626;45.436;10.942;2023-10-08T08:39:12;12.48;;;2.55;;
67828;SDS011;54626;45.436;10.942;2023-10-08T08:42:00;6.85;;;2.88;;
67828;SDS011;54626;45.436;10.942;2023-10-08T08:44:28;6.88;;;3.63;;
67828;SDS011;54626;45.436;10.942;2023-10-08T08:46:58;5.85;;;3.75;;
67828;SDS011;54626;45.436;10.942;2023-10-08T08:49:32;8.00;;;3.08;;
67828;SDS011;54626;45.436;10.942;2023-10-08T08:52:00;6.43;;;2.42;;
67828;SDS011;54626;45.436;10.942;2023-10-08T08:54:27;3.95;;;2.40;;
67828;SDS011;54626;45.436;10.942;2023-10-08T08:56:57;2.53;;;1.98;;
67828;SDS011;54626;45.436;10.942;2023-10-08T08:59:26;8.30;;;2.83;;
67828;SDS011;54626;45.436;10.942;2023-10-08T09:01:58;8.20;;;3.75;;
67828;SDS011;54626;45.436;10.942;2023-10-08T09:04:32;3.72;;;3.38;;
67828;SDS011;54626;45.436;10.942;2023-10-08T09:06:59;14.40;;;4.93;;
67828;SDS011;54626;45.436;10.942;2023-10-08T09:09:33;5.90;;;1.98;;
67828;SDS011;54626;45.436;10.942;2023-10-08T09:12:07;4.53;;;2.30;;
67828;SDS011;54626;45.436;10.942;2023-10-08T09:14:37;4.65;;;2.53;;
67828;SDS011;54626;45.436;10.942;2023-10-08T09:17:07;4.57;;;3.03;;
67828;SDS011;54626;45.436;10.942;2023-10-08T09:19:37;10.10;;;3.63;;
67828;SDS011;54626;45.436;10.942;2023-10-08T09:22:05;4.88;;;2.47;;
67828;SDS011;54626;45.436;10.942;2023-10-08T09:24:35;8.93;;;3.70;;
67828;SDS011;54626;45.436;10.942;2023-10-08T09:27:10;7.47;;;4.88;;
67828;SDS011;54626;45.436;10.942;2023-10-08T09:29:44;11.02;;;4.70;;
67828;SDS011;54626;45.436;10.942;2023-10-08T09:32:12;5.20;;;2.42;;
67828;SDS011;54626;45.436;10.942;2023-10-08T09:34:40;8.02;;;3.53;;
67828;SDS011;54626;45.436;10.942;2023-10-08T09:37:06;4.43;;;3.20;;
67828;SDS011;54626;45.436;10.942;2023-10-08T09:39:36;7.85;;;3.60;;
67828;SDS011;54626;45.436;10.942;2023-10-08T09:42:03;5.82;;;2.83;;
67828;SDS011;54626;45.436;10.942;2023-10-08T09:44:33;4.97;;;2.10;;
67828;SDS011;54626;45.436;10.942;2023-10-08T09:47:04;8.48;;;3.28;;
67828;SDS011;54626;45.436;10.942;2023-10-08T09:49:40;8.45;;;4.15;;
67828;SDS011;54626;45.436;10.942;2023-10-08T09:52:33;6.35;;;2.83;;
67828;SDS011;54626;45.436;10.942;2023-10-08T09:55:05;8.55;;;3.28;;
67828;SDS011;54626;45.436;10.942;2023-10-08T09:57:37;7.60;;;3.72;;
67828;SDS011;54626;45.436;10.942;2023-10-08T10:00:04;8.63;;;3.20;;
67828;SDS011;54626;45.436;10.942;2023-10-08T10:02:59;5.63;;;3.47;;
67828;SDS011;54626;45.436;10.942;2023-10-08T10:05:30;7.25;;;2.70;;
67828;SDS011;54626;45.436;10.942;2023-10-08T10:07:58;6.55;;;2.33;;
67828;SDS011;54626;45.436;10.942;2023-10-08T10:10:32;4.60;;;2.05;;
67828;SDS011;54626;45.436;10.942;2023-10-08T10:13:04;7.20;;;3.00;;
67828;SDS011;54626;45.436;10.942;2023-10-08T10:15:39;2.35;;;1.60;;
67828;SDS011;54626;45.436;10.942;2023-10-08T10:20:46;7.95;;;2.47;;
67828;SDS011;54626;45.436;10.942;2023-10-08T10:26:25;2.20;;;1.65;;
67828;SDS011;54626;45.436;10.942;2023-10-08T10:31:42;5.03;;;2.20;;
67828;SDS011;54626;45.436;10.942;2023-10-08T10:34:23;5.18;;;2.35;;
67828;SDS011;54626;45.436;10.942;2023-10-08T10:36:54;5.13;;;1.65;;
67828;SDS011;54626;45.436;10.942;2023-10-08T10:39:25;6.72;;;2.75;;
67828;SDS011;54626;45.436;10.942;2023-10-08T10:41:53;5.30;;;1.95;;
67828;SDS011;54626;45.436;10.942;2023-10-08T10:44:28;1.08;;;0.63;;
67828;SDS011;54626;45.436;10.942;2023-10-08T10:46:59;1.92;;;0.95;;
67828;SDS011;54626;45.436;10.942;2023-10-08T10:49:42;1.33;;;1.00;;
67828;SDS011;54626;45.436;10.942;2023-10-08T10:52:41;1.00;;;0.70;;
67828;SDS011;54626;45.436;10.942;2023-10-08T10:55:12;1.90;;;1.08;;
67828;SDS011;54626;45.436;10.942;2023-10-08T10:57:40;6.65;;;1.45;;
67828;SDS011;54626;45.436;10.942;2023-10-08T11:00:30;2.58;;;0.77;;
67828;SDS011;54626;45.436;10.942;2023-10-08T11:03:02;2.33;;;0.98;;
67828;SDS011;54626;45.436;10.942;2023-10-08T11:05:31;4.53;;;1.38;;
67828;SDS011;54626;45.436;10.942;2023-10-08T11:08:04;1.65;;;0.60;;
67828;SDS011;54626;45.436;10.942;2023-10-08T11:10:37;5.05;;;1.08;;
67828;SDS011;54626;45.436;10.942;2023-10-08T11:13:05;2.40;;;0.60;;
67828;SDS011;54626;45.436;10.942;2023-10-08T11:15:42;2.83;;;1.55;;
67828;SDS011;54626;45.436;10.942;2023-10-08T11:18:09;0.82;;;0.57;;
67828;SDS011;54626;45.436;10.942;2023-10-08T11:20:41;0.47;;;0.45;;
67828;SDS011;54626;45.436;10.942;2023-10-08T11:23:33;1.30;;;0.95;;
67828;SDS011;54626;45.436;10.942;2023-10-08T11:26:05;1.23;;;0.88;;
67828;SDS011;54626;45.436;10.942;2023-10-08T11:28:39;2.63;;;1.02;;
67828;SDS011;54626;45.436;10.942;2023-10-08T11:31:12;3.83;;;0.95;;
67828;SDS011;54626;45.436;10.942;2023-10-08T11:33:41;1.65;;;0.30;;
67828;SDS011;54626;45.436;10.942;2023-10-08T11:36:11;3.10;;;1.27;;
67828;SDS011;54626;45.436;10.942;2023-10-08T11:38:46;1.10;;;0.90;;
67828;SDS011;54626;45.436;10.942;2023-10-08T11:41:32;1.17;;;0.80;;
67828;SDS011;54626;45.436;10.942;2023-10-08T11:44:24;2.17;;;0.50;;
67828;SDS011;54626;45.436;10.942;2023-10-08T11:46:56;6.82;;;1.23;;
67828;SDS011;54626;45.436;10.942;2023-10-08T11:49:31;1.55;;;0.93;;
67828;SDS011;54626;45.436;10.942;2023-10-08T11:52:03;0.88;;;0.68;;
67828;SDS011;54626;45.436;10.942;2023-10-08T11:54:30;4.70;;;1.02;;
67828;SDS011;54626;45.436;10.942;2023-10-08T11:57:12;5.00;;;1.00;;
67828;SDS011;54626;45.436;10.942;2023-10-08T11:59:39;1.67;;;0.88;;
67828;SDS011;54626;45.436;10.942;2023-10-08T12:02:06;1.85;;;1.10;;
67828;SDS011;54626;45.436;10.942;2023-10-08T12:04:32;1.92;;;0.80;;
67828;SDS011;54626;45.436;10.942;2023-10-08T12:06:59;7.95;;;1.83;;
67828;SDS011;54626;45.436;10.942;2023-10-08T12:09:29;3.53;;;1.02;;
67828;SDS011;54626;45.436;10.942;2023-10-08T12:11:55;2.45;;;0.88;;
67828;SDS011;54626;45.436;10.942;2023-10-08T12:14:23;2.30;;;1.20;;
67828;SDS011;54626;45.436;10.942;2023-10-08T12:16:56;1.40;;;0.70;;
67828;SDS011;54626;45.436;10.942;2023-10-08T12:19:26;1.70;;;1.00;;
67828;SDS011;54626;45.436;10.942;2023-10-08T12:21:58;1.40;;;0.88;;
67828;SDS011;54626;45.436;10.942;2023-10-08T12:24:28;2.08;;;0.88;;
67828;SDS011;54626;45.436;10.942;2023-10-08T12:26:55;3.97;;;0.93;;
67828;SDS011;54626;45.436;10.942;2023-10-08T12:29:22;2.05;;;0.93;;
67828;SDS011;54626;45.436;10.942;2023-10-08T12:31:51;2.08;;;1.17;;
67828;SDS011;54626;45.436;10.942;2023-10-08T12:34:19;4.50;;;1.42;;
67828;SDS011;54626;45.436;10.942;2023-10-08T12:36:49;2.58;;;1.10;;
67828;SDS011;54626;45.436;10.942;2023-10-08T12:39:16;2.65;;;1.15;;
67828;SDS011;54626;45.436;10.942;2023-10-08T12:41:43;3.72;;;1.50;;
67828;SDS011;54626;45.436;10.942;2023-10-08T12:44:32;4.78;;;1.42;;
67828;SDS011;54626;45.436;10.942;2023-10-08T12:47:01;6.40;;;1.38;;
67828;SDS011;54626;45.436;10.942;2023-10-08T12:49:33;2.70;;;1.52;;
67828;SDS011;54626;45.436;10.942;2023-10-08T12:52:02;2.03;;;1.25;;
67828;SDS011;54626;45.436;10.942;2023-10-08T12:54:28;2.78;;;1.20;;
67828;SDS011;54626;45.436;10.942;2023-10-08T12:57:03;3.67;;;1.38;;
67828;SDS011;54626;45.436;10.942;2023-10-08T12:59:59;2.72;;;0.98;;
67828;SDS011;54626;45.436;10.942;2023-10-08T13:02:26;2.95;;;1.20;;
67828;SDS011;54626;45.436;10.942;2023-10-08T13:04:55;4.28;;;1.73;;
67828;SDS011;54626;45.436;10.942;2023-10-08T13:07:26;3.35;;;1.02;;
67828;SDS011;54626;45.436;10.942;2023-10-08T13:09:52;4.90;;;1.58;;
67828;SDS011;54626;45.436;10.942;2023-10-08T13:12:19;4.20;;;1.55;;
67828;SDS011;54626;45.436;10.942;2023-10-08T13:14:47;5.00;;;2.00;;
67828;SDS011;54626;45.436;10.942;2023-10-08T13:17:13;3.78;;;1.70;;
67828;SDS011;54626;45.436;10.942;2023-10-08T13:19:40;2.42;;;1.05;;
67828;SDS011;54626;45.436;10.942;2023-10-08T13:22:06;6.75;;;1.83;;
67828;SDS011;54626;45.436;10.942;2023-10-08T13:24:33;3.13;;;1.10;;
67828;SDS011;54626;45.436;10.942;2023-10-08T13:27:01;3.28;;;1.25;;
67828;SDS011;54626;45.436;10.942;2023-10-08T13:29:31;3.13;;;1.35;;
67828;SDS011;54626;45.436;10.942;2023-10-08T13:31:59;3.67;;;1.48;;
67828;SDS011;54626;45.436;10.942;2023-10-08T13:34:27;1.52;;;0.80;;
67828;SDS011;54626;45.436;10.942;2023-10-08T13:36:53;1.90;;;1.35;;
67828;SDS011;54626;45.436;10.942;2023-10-08T13:39:20;2.97;;;1.30;;
67828;SDS011;54626;45.436;10.942;2023-10-08T13:41:47;3.95;;;1.55;;
67828;SDS011;54626;45.436;10.942;2023-10-08T13:44:14;3.33;;;1.77;;
67828;SDS011;54626;45.436;10.942;2023-10-08T13:46:41;2.95;;;1.45;;
67828;SDS011;54626;45.436;10.942;2023-10-08T13:49:18;3.72;;;1.60;;
67828;SDS011;54626;45.436;10.942;2023-10-08T13:51:46;4.50;;;0.95;;
67828;SDS011;54626;45.436;10.942;2023-10-08T13:54:16;2.72;;;1.35;;
67828;SDS011;54626;45.436;10.942;2023-10-08T13:56:44;2.70;;;1.48;;
67828;SDS011;54626;45.436;10.942;2023-10-08T13:59:15;3.38;;;1.55;;
67828;SDS011;54626;45.436;10.942;2023-10-08T14:01:43;3.28;;;1.17;;
67828;SDS011;54626;45.436;10.942;2023-10-08T14:04:18;2.67;;;1.20;;
67828;SDS011;54626;45.436;10.942;2023-10-08T14:06:57;2.03;;;1.20;;
67828;SDS011;54626;45.436;10.942;2023-10-08T14:09:24;1.65;;;0.82;;
67828;SDS011;54626;45.436;10.942;2023-10-08T14:11:59;2.08;;;1.15;;
67828;SDS011;54626;45.436;10.942;2023-10-08T14:14:26;5.65;;;1.20;;
67828;SDS011;54626;45.436;10.942;2023-10-08T14:16:57;5.32;;;1.35;;
67828;SDS011;54626;45.436;10.942;2023-10-08T14:19:37;2.03;;;1.05;;
67828;SDS011;54626;45.436;10.942;2023-10-08T14:22:13;3.20;;;1.42;;
67828;SDS011;54626;45.436;10.942;2023-10-08T14:24:43;4.00;;;1.05;;
67828;SDS011;54626;45.436;10.942;2023-10-08T14:27:13;2.35;;;0.82;;
67828;SDS011;54626;45.436;10.942;2023-10-08T14:29:42;2.38;;;1.30;;
67828;SDS011;54626;45.436;10.942;2023-10-08T14:32:16;2.85;;;0.95;;
67828;SDS011;54626;45.436;10.942;2023-10-08T14:34:43;3.72;;;1.30;;
67828;SDS011;54626;45.436;10.942;2023-10-08T14:37:13;6.40;;;2.50;;
67828;SDS011;54626;45.436;10.942;2023-10-08T14:39:58;1.58;;;1.25;;
67828;SDS011;54626;45.436;10.942;2023-10-08T14:42:43;4.55;;;2.45;;
67828;SDS011;54626;45.436;10.942;2023-10-08T14:45:25;5.90;;;1.77;;
67828;SDS011;54626;45.436;10.942;2023-10-08T14:47:56;3.00;;;1.65;;
67828;SDS011;54626;45.436;10.942;2023-10-08T14:50:24;3.05;;;1.67;;
67828;SDS011;54626;45.436;10.942;2023-10-08T14:52:58;3.85;;;2.25;;
67828;SDS011;54626;45.436;10.942;2023-10-08T14:55:32;4.35;;;1.80;;
67828;SDS011;54626;45.436;10.942;2023-10-08T14:58:02;2.17;;;1.20;;
67828;SDS011;54626;45.436;10.942;2023-10-08T15:00:35;2.83;;;1.38;;
67828;SDS011;54626;45.436;10.942;2023-10-08T15:03:02;4.38;;;1.40;;
67828;SDS011;54626;45.436;10.942;2023-10-08T15:05:29;3.15;;;1.58;;
67828;SDS011;54626;45.436;10.942;2023-10-08T15:08:19;5.38;;;2.03;;
67828;SDS011;54626;45.436;10.942;2023-10-08T15:10:52;3.50;;;1.90;;
67828;SDS011;54626;45.436;10.942;2023-10-08T15:13:20;5.38;;;1.30;;
67828;SDS011;54626;45.436;10.942;2023-10-08T15:15:46;3.40;;;1.67;;
67828;SDS011;54626;45.436;10.942;2023-10-08T15:18:13;5.20;;;2.08;;
67828;SDS011;54626;45.436;10.942;2023-10-08T15:20:40;4.05;;;1.92;;
67828;SDS011;54626;45.436;10.942;2023-10-08T15:23:09;3.00;;;1.65;;
67828;SDS011;54626;45.436;10.942;2023-10-08T15:25:38;6.88;;;1.58;;
67828;SDS011;54626;45.436;10.942;2023-10-08T15:28:05;2.88;;;1.55;;
67828;SDS011;54626;45.436;10.942;2023-10-08T15:30:32;12.70;;;2.33;;
67828;SDS011;54626;45.436;10.942;2023-10-08T15:32:59;7.75;;;3.08;;
67828;SDS011;54626;45.436;10.942;2023-10-08T15:35:28;4.13;;;2.40;;
67828;SDS011;54626;45.436;10.942;2023-10-08T15:37:55;6.45;;;1.88;;
67828;SDS011;54626;45.436;10.942;2023-10-08T15:40:22;9.27;;;2.42;;
67828;SDS011;54626;45.436;10.942;2023-10-08T15:42:50;3.97;;;1.35;;
67828;SDS011;54626;45.436;10.942;2023-10-08T15:45:24;4.25;;;1.50;;
67828;SDS011;54626;45.436;10.942;2023-10-08T15:47:52;4.15;;;1.05;;